Thornton, Kentucky
Current Conditions -  °F | °C
As of 1:15 PM on Thursday 23 Oct 2014 (Local Time) from KLNP Reporting Station
Overcast Overcast  
Wind Chill: 50°   Ceiling: 1900
Heat Index: 50°   Visibility: 10mi
Dew Point: 36°   Wind: 7mph
Humidity: 58%   Direction: 10°N
Pressure: 30.19"   Gusts: NA
Location:  37.17°N, 82.78°W
Report Text: KLNP 231715Z AUTO 01006KT 10SM OVC019 10/02 A3019 RMK AO2
Loading
Personal Weather Stations






























Interactive Weather Map
Tropical Storm Tracking
New forecast layout! Learn more

10-Day Weather Forecast

Advertisements
Track Severe Weather on mobile